1C9 weather

Frazier Lake Airpark
Hollister, California, United States

Public forecast

Using degrees Fahrenheit for public forecast. Weather courtesy of forecast.io.

METAR (pilot weather report)

Closest report is San Martin Airport, 10.0 nm (18.5 km) NW. Retrieved UTC (0 seconds ago):

TAF (pilot weather forecast)

Forecast is more than 12 hours old.

Closest forecast is Salinas Municipal Airport, 18.7 nm (34.7 km) SSW. Retrieved 2019/06/15 00:36 UTC (1 day ago):

TAF KSNS 152333Z 1600/1624 29013KT P6SM SCT015 FM160100 29010KT P6SM OVC012 FM160400 29006KT P6SM OVC008 FM162000 29010KT P6SM SCT015 FM162200 29012KT P6SM SKC